createdAt,value
2023-07-30T00:00:02.395Z,1.70
2023-07-30T00:02:29.579Z,1.70
2023-07-30T00:04:57.011Z,1.73
2023-07-30T00:07:24.119Z,1.67
2023-07-30T00:09:51.271Z,1.50
2023-07-30T00:12:18.422Z,1.60
2023-07-30T00:14:45.538Z,1.40
2023-07-30T00:17:12.641Z,1.50
2023-07-30T00:19:39.772Z,1.50
2023-07-30T00:22:09.314Z,1.60
2023-07-30T00:24:36.490Z,1.40
2023-07-30T00:27:09.643Z,1.30
2023-07-30T00:29:36.762Z,1.10
2023-07-30T00:32:03.880Z,1.10
2023-07-30T00:34:33.221Z,1.17
2023-07-30T00:37:00.387Z,1.13
2023-07-30T00:39:27.549Z,1.13
2023-07-30T00:41:54.721Z,1.13
2023-07-30T00:44:24.845Z,1.00
2023-07-30T00:46:52.406Z,1.05
2023-07-30T00:49:19.927Z,1.27
2023-07-30T00:51:50.137Z,1.13
2023-07-30T00:54:17.325Z,1.20
2023-07-30T00:56:48.013Z,1.20
2023-07-30T00:59:17.635Z,1.05
2023-07-30T01:01:45.686Z,1.08
2023-07-30T01:04:12.852Z,1.00
2023-07-30T01:06:40.098Z,1.40
2023-07-30T01:09:07.258Z,0.90
2023-07-30T01:11:34.644Z,0.80
2023-07-30T01:14:02.354Z,0.80
2023-07-30T01:16:29.678Z,0.70
2023-07-30T01:18:57.737Z,1.10
2023-07-30T01:21:31.020Z,0.93
2023-07-30T01:23:58.164Z,0.90
2023-07-30T01:26:26.448Z,0.70
2023-07-30T01:28:58.936Z,0.93
2023-07-30T01:31:27.927Z,0.90
2023-07-30T01:33:57.269Z,0.95
2023-07-30T01:36:24.462Z,1.35
2023-07-30T01:38:55.091Z,0.93
2023-07-30T01:41:22.274Z,1.10
2023-07-30T01:43:50.046Z,0.80
2023-07-30T01:46:17.251Z,0.90
2023-07-30T01:48:44.445Z,0.80
2023-07-30T01:51:11.583Z,0.90
2023-07-30T01:53:44.719Z,0.90
2023-07-30T01:56:11.977Z,0.60
2023-07-30T01:58:39.074Z,0.90
2023-07-30T02:01:06.425Z,0.80
2023-07-30T02:03:35.780Z,0.80
2023-07-30T02:06:03.217Z,0.70
2023-07-30T02:08:30.334Z,0.90
2023-07-30T02:11:00.897Z,0.63
2023-07-30T02:13:28.164Z,0.90
2023-07-30T02:15:56.540Z,0.70
2023-07-30T02:18:23.722Z,0.70
2023-07-30T02:20:50.910Z,0.70
2023-07-30T02:23:18.111Z,0.80
2023-07-30T02:25:45.275Z,0.82
2023-07-30T02:28:14.477Z,0.70
2023-07-30T02:30:42.669Z,0.80
2023-07-30T02:33:09.838Z,0.70
2023-07-30T02:35:37.116Z,0.80
2023-07-30T02:38:04.524Z,0.80
2023-07-30T02:40:31.917Z,0.80
2023-07-30T02:43:01.292Z,0.60
2023-07-30T02:45:28.660Z,0.80
2023-07-30T02:47:55.810Z,0.60
2023-07-30T02:50:23.296Z,0.70
2023-07-30T02:52:50.450Z,0.77
2023-07-30T02:55:17.699Z,0.93
2023-07-30T02:57:44.827Z,0.85
2023-07-30T03:00:12.193Z,0.90
2023-07-30T03:02:39.424Z,0.80
2023-07-30T03:05:06.966Z,0.85
2023-07-30T03:07:34.100Z,0.77
2023-07-30T03:10:01.368Z,0.80
2023-07-30T03:12:31.529Z,0.90
2023-07-30T03:14:58.712Z,0.77
2023-07-30T03:17:25.889Z,0.88
2023-07-30T03:19:53.053Z,0.90
2023-07-30T03:22:20.319Z,1.00
2023-07-30T03:24:48.682Z,1.00
2023-07-30T03:27:15.921Z,0.70
2023-07-30T03:29:43.100Z,1.00
2023-07-30T03:32:10.350Z,0.70
2023-07-30T03:34:37.505Z,0.90
2023-07-30T03:37:07.731Z,0.90
2023-07-30T03:39:35.052Z,0.93
2023-07-30T03:42:02.388Z,0.97
2023-07-30T03:44:29.529Z,0.90
2023-07-30T03:46:56.692Z,1.40
2023-07-30T03:49:26.026Z,0.90
2023-07-30T03:51:53.803Z,0.70
2023-07-30T03:54:20.920Z,0.80
2023-07-30T03:56:51.224Z,1.10
2023-07-30T03:59:18.318Z,0.90
2023-07-30T04:01:45.400Z,1.10
2023-07-30T04:04:12.469Z,1.05
2023-07-30T04:06:39.668Z,1.00
2023-07-30T04:09:06.866Z,0.97
2023-07-30T04:11:34.081Z,1.13
2023-07-30T04:14:01.210Z,1.00
2023-07-30T04:16:28.370Z,0.88
2023-07-30T04:18:55.788Z,0.95
2023-07-30T04:21:23.124Z,1.10
2023-07-30T04:23:50.303Z,0.85
2023-07-30T04:26:17.504Z,0.87
2023-07-30T04:28:44.605Z,1.00
2023-07-30T04:31:11.806Z,1.00
2023-07-30T04:33:39.215Z,0.82
2023-07-30T04:36:08.344Z,1.00
2023-07-30T04:38:35.656Z,0.90
2023-07-30T04:41:02.798Z,1.00
2023-07-30T04:43:30.513Z,1.00
2023-07-30T04:45:57.675Z,1.05
2023-07-30T04:48:24.869Z,0.95
2023-07-30T04:50:52.027Z,1.00
2023-07-30T04:53:21.703Z,1.00
2023-07-30T04:55:48.884Z,1.08
2023-07-30T04:58:16.085Z,0.90
2023-07-30T05:00:43.264Z,0.90
2023-07-30T05:03:16.430Z,1.10
2023-07-30T05:05:43.711Z,0.90
2023-07-30T05:08:10.847Z,0.98
2023-07-30T05:10:41.083Z,2.08
2023-07-30T05:13:10.070Z,142.18
2023-07-30T05:15:37.364Z,68.65
2023-07-30T05:18:07.262Z,47.28
2023-07-30T05:20:34.533Z,268.15
2023-07-30T05:23:03.164Z,1.10
2023-07-30T05:25:30.833Z,1.00
2023-07-30T05:27:57.995Z,0.90
2023-07-30T05:30:27.781Z,0.90
2023-07-30T05:32:55.084Z,1.02
2023-07-30T05:35:23.262Z,1.13
2023-07-30T05:37:51.576Z,1.00
2023-07-30T05:40:21.199Z,1.00
2023-07-30T05:42:51.188Z,0.90
2023-07-30T05:45:18.446Z,1.00
2023-07-30T05:47:48.253Z,1.10
2023-07-30T05:50:15.534Z,1.00
2023-07-30T05:52:42.665Z,0.80
2023-07-30T05:55:12.899Z,0.82
2023-07-30T05:57:40.039Z,1.30
2023-07-30T06:00:09.128Z,1.50
2023-07-30T06:02:36.250Z,1.00
2023-07-30T06:05:03.452Z,1.67
2023-07-30T06:07:30.564Z,4.90
2023-07-30T06:09:57.724Z,14.40
2023-07-30T06:12:25.103Z,28.17
2023-07-30T06:14:52.247Z,42.70
2023-07-30T06:17:19.365Z,6.55
2023-07-30T06:19:46.516Z,1.92
2023-07-30T06:22:13.622Z,8.57
2023-07-30T06:24:40.736Z,66.57
2023-07-30T06:27:08.009Z,110.05
2023-07-30T06:29:35.110Z,300.55
2023-07-30T06:32:02.260Z,307.67
2023-07-30T06:34:32.145Z,222.02
2023-07-30T06:36:59.252Z,185.15
2023-07-30T06:39:26.686Z,219.43
2023-07-30T06:41:53.847Z,136.60
2023-07-30T06:44:20.996Z,157.77
2023-07-30T06:46:48.254Z,81.30
2023-07-30T06:49:15.528Z,60.88
2023-07-30T06:51:43.143Z,89.22
2023-07-30T06:54:13.657Z,36.47
2023-07-30T06:56:41.145Z,1.30
2023-07-30T06:59:08.288Z,37.00
2023-07-30T07:01:35.529Z,76.65
2023-07-30T07:04:02.704Z,104.72
2023-07-30T07:06:29.888Z,99.00
2023-07-30T07:08:57.349Z,41.40
2023-07-30T07:11:24.481Z,95.60
2023-07-30T07:13:54.651Z,133.17
2023-07-30T07:16:22.364Z,41.17
2023-07-30T07:18:50.127Z,376.15
2023-07-30T07:21:17.308Z,648.30
2023-07-30T07:23:44.464Z,755.22
2023-07-30T07:26:14.837Z,819.50
2023-07-30T07:28:41.942Z,820.20
2023-07-30T07:31:09.068Z,808.10
2023-07-30T07:33:36.322Z,572.95
2023-07-30T07:36:09.726Z,784.42
2023-07-30T07:38:36.888Z,797.17
2023-07-30T07:41:04.074Z,754.92
2023-07-30T07:43:31.213Z,769.47
2023-07-30T07:45:58.365Z,765.88
2023-07-30T07:48:25.574Z,750.65
2023-07-30T07:50:55.860Z,649.20
2023-07-30T07:53:23.020Z,1.70
2023-07-30T07:55:50.172Z,1.45
2023-07-30T07:58:17.255Z,1.50
2023-07-30T08:00:44.465Z,1.40
2023-07-30T08:03:14.437Z,1.50
2023-07-30T08:05:41.548Z,1.60
2023-07-30T08:08:09.665Z,1.30
2023-07-30T08:10:48.320Z,1.02
2023-07-30T08:13:15.984Z,1.27
2023-07-30T08:15:43.125Z,1.10
2023-07-30T08:18:13.613Z,1.42
2023-07-30T08:20:40.769Z,1.00
2023-07-30T08:23:07.980Z,1.00
2023-07-30T08:25:38.236Z,1.10
2023-07-30T08:28:05.563Z,0.88
2023-07-30T08:30:32.813Z,1.10
2023-07-30T08:32:59.998Z,1.00
2023-07-30T08:35:28.083Z,1.43
2023-07-30T08:37:57.950Z,1.00
2023-07-30T08:40:25.708Z,1.17
2023-07-30T08:42:53.362Z,1.20
2023-07-30T08:45:20.842Z,1.30
2023-07-30T08:47:48.620Z,1.27
2023-07-30T08:50:15.792Z,1.35
2023-07-30T08:52:43.505Z,1.20
2023-07-30T08:55:12.157Z,1.38
2023-07-30T08:57:39.493Z,1.60
2023-07-30T09:00:13.589Z,1.70
2023-07-30T09:03:00.963Z,1.65
2023-07-30T09:05:34.021Z,1.63
2023-07-30T09:08:01.344Z,1.52
2023-07-30T09:10:28.749Z,1.60
2023-07-30T09:12:56.838Z,1.20
2023-07-30T09:15:31.293Z,1.30
2023-07-30T09:17:58.414Z,1.33
2023-07-30T09:20:25.904Z,0.70
2023-07-30T09:22:54.144Z,0.70
2023-07-30T09:25:21.947Z,0.63
2023-07-30T09:27:50.376Z,0.65
2023-07-30T09:30:26.572Z,0.80
2023-07-30T09:32:54.834Z,0.50
2023-07-30T09:35:23.054Z,0.45
2023-07-30T09:37:50.265Z,0.70
2023-07-30T09:40:20.266Z,0.70
2023-07-30T09:42:50.535Z,0.50
2023-07-30T09:45:28.833Z,0.65
2023-07-30T09:47:59.607Z,0.50
2023-07-30T09:50:26.691Z,0.50
2023-07-30T09:52:54.544Z,0.57
2023-07-30T09:55:21.910Z,0.60
2023-07-30T09:57:49.410Z,0.50
2023-07-30T10:00:16.700Z,0.40
2023-07-30T10:02:50.618Z,0.43
2023-07-30T10:05:19.793Z,0.50
2023-07-30T10:07:53.299Z,0.70
2023-07-30T10:10:21.008Z,0.50
2023-07-30T10:12:48.959Z,0.60
2023-07-30T10:15:19.801Z,0.60
2023-07-30T10:17:46.969Z,0.60
2023-07-30T10:20:22.742Z,0.50
2023-07-30T10:22:52.693Z,0.70
2023-07-30T10:25:22.002Z,0.75
2023-07-30T10:27:52.719Z,0.70
2023-07-30T10:30:21.053Z,0.68
2023-07-30T10:32:57.213Z,0.67
2023-07-30T10:35:36.557Z,0.70
2023-07-30T10:38:14.726Z,0.65
2023-07-30T10:41:01.943Z,0.70
2023-07-30T10:43:32.721Z,0.90
2023-07-30T10:45:59.888Z,0.70
2023-07-30T10:48:44.231Z,0.90
2023-07-30T10:51:14.345Z,0.80
2023-07-30T10:53:44.210Z,0.95
2023-07-30T10:56:11.640Z,0.80
2023-07-30T10:58:39.000Z,1.00
2023-07-30T11:01:07.106Z,1.00
2023-07-30T11:03:34.813Z,1.00
2023-07-30T11:06:02.554Z,0.82
2023-07-30T11:08:42.690Z,0.90
2023-07-30T11:11:10.852Z,0.90
2023-07-30T11:13:38.945Z,0.90
2023-07-30T11:16:10.611Z,0.83
2023-07-30T11:18:38.651Z,1.30
2023-07-30T11:21:05.787Z,1.00
2023-07-30T11:23:33.210Z,1.00
2023-07-30T11:26:06.764Z,0.80
2023-07-30T11:28:36.978Z,0.98
2023-07-30T11:31:09.061Z,1.10
2023-07-30T11:33:40.563Z,0.90
2023-07-30T11:36:09.188Z,1.00
2023-07-30T11:38:36.503Z,285.20
2023-07-30T11:41:04.030Z,368.17
2023-07-30T11:43:31.677Z,274.02
2023-07-30T11:46:18.546Z,103.00
2023-07-30T11:48:49.443Z,1.08
2023-07-30T11:51:20.850Z,0.90
2023-07-30T11:53:50.351Z,1.13
2023-07-30T11:56:18.872Z,20.80
2023-07-30T11:58:46.090Z,1.10
2023-07-30T12:01:13.336Z,0.80
2023-07-30T12:03:40.792Z,0.90
2023-07-30T12:06:10.832Z,1.13
2023-07-30T12:08:38.326Z,0.75
2023-07-30T12:11:06.131Z,1.00
2023-07-30T12:13:33.656Z,1.05
2023-07-30T12:16:01.135Z,0.88
2023-07-30T12:18:30.145Z,1.02
2023-07-30T12:20:57.658Z,1.08
2023-07-30T12:23:26.949Z,1.00
2023-07-30T12:25:54.519Z,1.30
2023-07-30T12:28:21.793Z,1.00
2023-07-30T12:30:49.580Z,1.02
2023-07-30T12:33:18.343Z,0.95
2023-07-30T12:35:51.442Z,1.20
2023-07-30T12:38:20.601Z,1.10
2023-07-30T12:40:51.662Z,1.13
2023-07-30T12:43:22.719Z,1.67
2023-07-30T12:45:50.909Z,25.98
2023-07-30T12:48:18.704Z,183.48
2023-07-30T12:50:47.833Z,208.73
2023-07-30T12:53:15.751Z,657.10
2023-07-30T12:55:43.499Z,657.90
2023-07-30T12:58:11.766Z,23.70
2023-07-30T13:00:40.528Z,1.00
2023-07-30T13:03:08.703Z,25.80
2023-07-30T13:05:36.733Z,1.00
2023-07-30T13:08:04.760Z,4.18
2023-07-30T13:10:33.589Z,1.83
2023-07-30T13:13:00.872Z,17.90
2023-07-30T13:15:29.356Z,37.40
2023-07-30T13:17:56.639Z,8.18
2023-07-30T13:20:23.929Z,143.63
2023-07-30T13:22:53.387Z,337.85
2023-07-30T13:25:21.209Z,341.08
2023-07-30T13:27:48.397Z,331.48
2023-07-30T13:30:15.582Z,362.80
2023-07-30T13:32:42.823Z,112.57
2023-07-30T13:35:10.012Z,128.32
2023-07-30T13:37:37.167Z,555.92
2023-07-30T13:40:04.645Z,502.73
2023-07-30T13:42:31.883Z,657.55
2023-07-30T13:45:01.904Z,581.03
2023-07-30T13:47:32.263Z,385.15
2023-07-30T13:49:59.557Z,342.67
2023-07-30T13:52:26.714Z,305.77
2023-07-30T13:54:53.846Z,202.23
2023-07-30T13:57:27.166Z,15.07
2023-07-30T13:59:54.723Z,46.78
2023-07-30T14:02:22.076Z,21.58
2023-07-30T14:04:49.254Z,1.20
2023-07-30T14:07:16.427Z,1.30
2023-07-30T14:09:46.569Z,1.17
2023-07-30T14:12:13.850Z,1.05
2023-07-30T14:14:40.949Z,1.15
2023-07-30T14:17:08.220Z,0.90
2023-07-30T14:19:35.724Z,0.80
2023-07-30T14:22:03.034Z,1.10
2023-07-30T14:24:30.235Z,1.10
2023-07-30T14:26:57.574Z,1.05
2023-07-30T14:29:27.491Z,60.30
2023-07-30T14:31:57.751Z,157.77
2023-07-30T14:34:27.596Z,420.30
2023-07-30T14:36:54.736Z,389.00
2023-07-30T14:39:21.869Z,544.43
2023-07-30T14:41:51.821Z,564.83
2023-07-30T14:44:25.078Z,433.70
2023-07-30T14:46:54.659Z,882.97
2023-07-30T14:49:22.088Z,910.07
2023-07-30T14:51:49.270Z,916.77
2023-07-30T14:54:16.365Z,850.33
2023-07-30T14:56:43.462Z,841.55
2023-07-30T14:59:10.866Z,515.70
2023-07-30T15:01:38.086Z,798.07
2023-07-30T15:04:10.485Z,827.92
2023-07-30T15:06:37.831Z,847.00
2023-07-30T15:09:08.138Z,877.47
2023-07-30T15:11:35.292Z,5.25
2023-07-30T15:14:08.600Z,4.85
2023-07-30T15:16:35.762Z,0.95
2023-07-30T15:19:02.961Z,2.13
2023-07-30T15:21:33.107Z,1.20
2023-07-30T15:24:00.660Z,1.27
2023-07-30T15:26:27.952Z,35.83
2023-07-30T15:28:55.091Z,100.00
2023-07-30T15:31:22.326Z,252.35
2023-07-30T15:33:49.542Z,2.63
2023-07-30T15:36:16.721Z,1.17
2023-07-30T15:38:43.801Z,1.00
2023-07-30T15:41:10.954Z,1.30
2023-07-30T15:43:38.136Z,1.10
2023-07-30T15:46:08.315Z,1.00
2023-07-30T15:48:35.549Z,0.90
2023-07-30T15:51:04.721Z,1.15
2023-07-30T15:53:32.997Z,26.37
2023-07-30T15:56:04.822Z,47.63
2023-07-30T15:58:32.498Z,201.85
2023-07-30T16:00:59.849Z,154.05
2023-07-30T16:03:27.575Z,1.33
2023-07-30T16:05:54.781Z,1.03
2023-07-30T16:08:21.989Z,32.72
2023-07-30T16:10:52.376Z,1.88
2023-07-30T16:13:19.622Z,1.20
2023-07-30T16:15:47.246Z,1.10
2023-07-30T16:18:17.535Z,0.63
2023-07-30T16:20:44.638Z,1.05
2023-07-30T16:23:14.799Z,1.10
2023-07-30T16:25:41.941Z,1.20
2023-07-30T16:28:09.152Z,1.02
2023-07-30T16:30:36.410Z,1.05
2023-07-30T16:33:03.627Z,1.00
2023-07-30T16:35:33.604Z,0.85
2023-07-30T16:38:00.800Z,1.00
2023-07-30T16:40:27.943Z,0.90
2023-07-30T16:42:55.256Z,1.00
2023-07-30T16:45:23.311Z,1.10
2023-07-30T16:47:50.678Z,3.45
2023-07-30T16:50:17.980Z,0.93
2023-07-30T16:52:45.198Z,1.67
2023-07-30T16:55:15.329Z,1.02
2023-07-30T16:57:42.654Z,1.13
2023-07-30T17:00:12.114Z,1.20
2023-07-30T17:02:39.269Z,0.90
2023-07-30T17:05:06.883Z,1.20
2023-07-30T17:07:34.080Z,1.20
2023-07-30T17:10:01.172Z,0.80
2023-07-30T17:12:28.324Z,1.20
2023-07-30T17:14:57.728Z,1.23
2023-07-30T17:17:27.735Z,0.93
2023-07-30T17:19:55.152Z,0.90
2023-07-30T17:22:22.493Z,1.20
2023-07-30T17:24:49.671Z,1.30
2023-07-30T17:27:19.875Z,0.93
2023-07-30T17:29:47.273Z,1.00
2023-07-30T17:32:14.468Z,1.13
2023-07-30T17:34:41.756Z,1.30
2023-07-30T17:37:09.398Z,0.93
2023-07-30T17:39:37.106Z,1.10
2023-07-30T17:42:04.804Z,0.98
2023-07-30T17:44:32.969Z,1.10
2023-07-30T17:47:03.380Z,1.30
2023-07-30T17:49:30.537Z,4.37
2023-07-30T17:51:57.630Z,17.63
2023-07-30T17:54:24.708Z,1.10
2023-07-30T17:56:54.282Z,420.73
2023-07-30T17:59:26.954Z,472.20
2023-07-30T18:01:54.159Z,18.37
2023-07-30T18:04:21.552Z,1.57
2023-07-30T18:06:48.680Z,136.27
2023-07-30T18:09:19.055Z,0.90
2023-07-30T18:11:46.215Z,1.07
2023-07-30T18:14:13.374Z,1.23
2023-07-30T18:16:40.876Z,0.80
2023-07-30T18:19:08.221Z,1.00
2023-07-30T18:21:35.391Z,1.70
2023-07-30T18:24:02.548Z,2.35
2023-07-30T18:26:29.789Z,1.20
2023-07-30T18:29:00.061Z,1.17
2023-07-30T18:31:27.311Z,1.30
2023-07-30T18:33:54.440Z,1.00
2023-07-30T18:36:21.629Z,1.88
2023-07-30T18:38:48.799Z,9.30
2023-07-30T18:41:16.061Z,1.35
2023-07-30T18:43:43.567Z,7.60
2023-07-30T18:46:10.882Z,644.60
2023-07-30T18:48:38.116Z,418.95
2023-07-30T18:51:05.248Z,194.88
2023-07-30T18:53:33.685Z,7.88
2023-07-30T18:56:02.743Z,0.90
2023-07-30T18:58:29.887Z,9.32
2023-07-30T19:00:59.308Z,27.95
2023-07-30T19:03:26.625Z,1.00
2023-07-30T19:05:57.373Z,1.52
2023-07-30T19:08:24.980Z,1.10
2023-07-30T19:10:52.440Z,1.00
2023-07-30T19:13:22.433Z,1.15
2023-07-30T19:15:49.634Z,0.95
2023-07-30T19:18:16.879Z,1.17
2023-07-30T19:20:44.042Z,1.00
2023-07-30T19:23:11.479Z,1.00
2023-07-30T19:25:38.647Z,1.00
2023-07-30T19:28:07.445Z,1.10
2023-07-30T19:30:35.153Z,0.80
2023-07-30T19:33:02.460Z,1.17
2023-07-30T19:35:44.997Z,1.23
2023-07-30T19:38:23.398Z,0.95
2023-07-30T19:40:55.396Z,1.33
2023-07-30T19:43:23.879Z,1.00
2023-07-30T19:45:51.429Z,1.00
2023-07-30T19:48:22.550Z,1.13
2023-07-30T19:50:50.712Z,1.43
2023-07-30T19:53:21.349Z,1.00
2023-07-30T19:55:51.570Z,1.00
2023-07-30T19:58:29.002Z,0.90
2023-07-30T20:00:57.191Z,1.00
2023-07-30T20:03:27.831Z,1.00
2023-07-30T20:06:14.096Z,1.10
2023-07-30T20:08:41.782Z,0.90
2023-07-30T20:11:09.950Z,1.10
2023-07-30T20:13:37.088Z,1.13
2023-07-30T20:16:12.486Z,1.00
2023-07-30T20:18:41.279Z,1.13
2023-07-30T20:21:09.536Z,1.60
2023-07-30T20:23:36.879Z,1.40
2023-07-30T20:26:12.341Z,1.48
2023-07-30T20:28:39.650Z,1.15
2023-07-30T20:31:06.803Z,1.70
2023-07-30T20:33:36.111Z,1.10
2023-07-30T20:36:03.695Z,1.20
2023-07-30T20:38:36.821Z,1.10
2023-07-30T20:41:04.055Z,1.23
2023-07-30T20:43:35.120Z,1.30
2023-07-30T20:46:02.250Z,0.90
2023-07-30T20:48:32.026Z,1.20
2023-07-30T20:50:59.715Z,1.13
2023-07-30T20:53:26.801Z,0.80
2023-07-30T20:55:54.140Z,1.20
2023-07-30T20:58:26.202Z,0.90
2023-07-30T21:00:53.453Z,1.05
2023-07-30T21:03:20.984Z,1.13
2023-07-30T21:05:48.317Z,1.02
2023-07-30T21:08:15.650Z,5.75
2023-07-30T21:10:42.855Z,1.27
2023-07-30T21:13:11.057Z,1.00
2023-07-30T21:15:39.637Z,1.10
2023-07-30T21:18:07.014Z,1.30
2023-07-30T21:20:34.180Z,2.90
2023-07-30T21:23:01.303Z,1.15
2023-07-30T21:25:28.759Z,1.10
2023-07-30T21:27:55.974Z,1.15
2023-07-30T21:30:23.074Z,1.17
2023-07-30T21:32:50.391Z,0.80
2023-07-30T21:35:17.745Z,1.10
2023-07-30T21:37:45.203Z,1.10
2023-07-30T21:40:12.573Z,1.40
2023-07-30T21:42:39.755Z,0.88
2023-07-30T21:45:07.155Z,1.20
2023-07-30T21:47:34.318Z,1.00
2023-07-30T21:50:03.781Z,1.20
2023-07-30T21:52:31.511Z,1.40
2023-07-30T21:54:58.821Z,1.25
2023-07-30T21:57:26.467Z,1.20
2023-07-30T21:59:54.054Z,1.17
2023-07-30T22:02:22.842Z,1.30
2023-07-30T22:04:53.200Z,1.40
2023-07-30T22:07:23.473Z,1.20
2023-07-30T22:09:53.872Z,1.15
2023-07-30T22:12:20.992Z,1.08
2023-07-30T22:14:48.110Z,1.10
2023-07-30T22:17:15.298Z,1.38
2023-07-30T22:19:42.461Z,0.90
2023-07-30T22:22:09.941Z,1.25
2023-07-30T22:24:37.130Z,0.93
2023-07-30T22:27:04.426Z,1.50
2023-07-30T22:29:31.926Z,1.60
2023-07-30T22:31:59.086Z,1.90
2023-07-30T22:34:27.162Z,1.10
2023-07-30T22:36:54.351Z,1.20
2023-07-30T22:39:21.545Z,1.27
2023-07-30T22:41:48.636Z,1.70
2023-07-30T22:44:15.718Z,1.23
2023-07-30T22:46:43.291Z,1.05
2023-07-30T22:49:10.696Z,4.53
2023-07-30T22:51:37.854Z,27.35
2023-07-30T22:54:05.060Z,1.23
2023-07-30T22:56:32.459Z,1.40
2023-07-30T22:58:59.646Z,1.07
2023-07-30T23:01:27.060Z,1.20
2023-07-30T23:03:54.242Z,0.90
2023-07-30T23:06:21.516Z,1.20
2023-07-30T23:08:48.739Z,1.15
2023-07-30T23:11:20.853Z,1.30
2023-07-30T23:13:50.743Z,1.75
2023-07-30T23:16:18.041Z,1.40
2023-07-30T23:18:45.374Z,1.00
2023-07-30T23:21:12.564Z,1.00
2023-07-30T23:23:44.508Z,1.37
2023-07-30T23:26:11.813Z,1.30
2023-07-30T23:28:44.522Z,1.30
2023-07-30T23:31:12.001Z,47.72
2023-07-30T23:33:39.239Z,13.65
2023-07-30T23:36:09.816Z,555.88
2023-07-30T23:38:37.159Z,707.40
2023-07-30T23:41:04.359Z,707.72
2023-07-30T23:43:33.093Z,692.75
2023-07-30T23:46:00.407Z,1.27
2023-07-30T23:48:27.572Z,347.85
2023-07-30T23:51:04.757Z,408.90
2023-07-30T23:53:33.218Z,616.77
2023-07-30T23:56:00.508Z,678.08
2023-07-30T23:58:27.699Z,657.47
